sensor_id;sensor_type;location;lat;lon;timestamp;P1;durP1;ratioP1;P2;durP2;ratioP2
10009;SDS011;5044;48.652;9.250;2022-07-29T00:02:05;5.50;;;2.65;;
10009;SDS011;5044;48.652;9.250;2022-07-29T00:04:35;4.07;;;2.40;;
10009;SDS011;5044;48.652;9.250;2022-07-29T00:07:03;4.03;;;2.35;;
10009;SDS011;5044;48.652;9.250;2022-07-29T00:09:30;7.28;;;3.08;;
10009;SDS011;5044;48.652;9.250;2022-07-29T00:11:58;3.72;;;2.58;;
10009;SDS011;5044;48.652;9.250;2022-07-29T00:14:26;3.20;;;2.47;;
10009;SDS011;5044;48.652;9.250;2022-07-29T00:16:53;3.05;;;2.40;;
10009;SDS011;5044;48.652;9.250;2022-07-29T00:19:20;2.38;;;2.17;;
10009;SDS011;5044;48.652;9.250;2022-07-29T00:21:48;3.67;;;2.38;;
10009;SDS011;5044;48.652;9.250;2022-07-29T00:24:15;4.40;;;2.63;;
10009;SDS011;5044;48.652;9.250;2022-07-29T00:26:42;3.55;;;2.33;;
10009;SDS011;5044;48.652;9.250;2022-07-29T00:29:09;3.08;;;2.05;;
10009;SDS011;5044;48.652;9.250;2022-07-29T00:31:35;7.35;;;2.60;;
10009;SDS011;5044;48.652;9.250;2022-07-29T00:34:03;4.28;;;2.50;;
10009;SDS011;5044;48.652;9.250;2022-07-29T00:36:31;4.30;;;2.55;;
10009;SDS011;5044;48.652;9.250;2022-07-29T00:38:58;3.22;;;2.30;;
10009;SDS011;5044;48.652;9.250;2022-07-29T00:41:25;3.35;;;2.45;;
10009;SDS011;5044;48.652;9.250;2022-07-29T00:43:53;2.40;;;2.15;;
10009;SDS011;5044;48.652;9.250;2022-07-29T00:46:20;3.80;;;1.88;;
10009;SDS011;5044;48.652;9.250;2022-07-29T00:48:47;2.53;;;2.15;;
10009;SDS011;5044;48.652;9.250;2022-07-29T00:51:14;3.55;;;2.42;;
10009;SDS011;5044;48.652;9.250;2022-07-29T00:53:43;2.75;;;2.17;;
10009;SDS011;5044;48.652;9.250;2022-07-29T00:56:13;2.72;;;2.17;;
10009;SDS011;5044;48.652;9.250;2022-07-29T00:58:40;4.25;;;2.78;;
10009;SDS011;5044;48.652;9.250;2022-07-29T01:01:07;5.65;;;2.33;;
10009;SDS011;5044;48.652;9.250;2022-07-29T01:03:36;4.05;;;2.38;;
10009;SDS011;5044;48.652;9.250;2022-07-29T01:06:03;3.17;;;2.10;;
10009;SDS011;5044;48.652;9.250;2022-07-29T01:08:30;3.00;;;1.92;;
10009;SDS011;5044;48.652;9.250;2022-07-29T01:10:58;2.90;;;2.40;;
10009;SDS011;5044;48.652;9.250;2022-07-29T01:13:28;4.63;;;2.40;;
10009;SDS011;5044;48.652;9.250;2022-07-29T01:15:59;2.35;;;1.90;;
10009;SDS011;5044;48.652;9.250;2022-07-29T01:18:30;5.32;;;2.30;;
10009;SDS011;5044;48.652;9.250;2022-07-29T01:21:05;2.83;;;2.22;;
10009;SDS011;5044;48.652;9.250;2022-07-29T01:23:50;2.35;;;2.00;;
10009;SDS011;5044;48.652;9.250;2022-07-29T01:26:34;5.20;;;2.75;;
10009;SDS011;5044;48.652;9.250;2022-07-29T01:29:10;3.28;;;1.95;;
10009;SDS011;5044;48.652;9.250;2022-07-29T01:31:42;4.45;;;2.35;;
10009;SDS011;5044;48.652;9.250;2022-07-29T01:34:15;2.40;;;1.65;;
10009;SDS011;5044;48.652;9.250;2022-07-29T01:36:47;2.80;;;2.13;;
10009;SDS011;5044;48.652;9.250;2022-07-29T01:39:17;2.08;;;1.83;;
10009;SDS011;5044;48.652;9.250;2022-07-29T01:41:50;2.00;;;1.80;;
10009;SDS011;5044;48.652;9.250;2022-07-29T01:44:26;2.33;;;1.85;;
10009;SDS011;5044;48.652;9.250;2022-07-29T01:46:58;1.85;;;1.50;;
10009;SDS011;5044;48.652;9.250;2022-07-29T01:49:28;1.90;;;1.70;;
10009;SDS011;5044;48.652;9.250;2022-07-29T01:51:59;3.20;;;1.90;;
10009;SDS011;5044;48.652;9.250;2022-07-29T01:54:29;3.65;;;2.13;;
10009;SDS011;5044;48.652;9.250;2022-07-29T01:57:00;3.25;;;2.95;;
10009;SDS011;5044;48.652;9.250;2022-07-29T01:59:31;2.70;;;2.20;;
10009;SDS011;5044;48.652;9.250;2022-07-29T02:02:00;4.70;;;2.10;;
10009;SDS011;5044;48.652;9.250;2022-07-29T02:04:28;3.22;;;2.30;;
10009;SDS011;5044;48.652;9.250;2022-07-29T02:06:58;3.03;;;2.10;;
10009;SDS011;5044;48.652;9.250;2022-07-29T02:09:27;2.95;;;1.80;;
10009;SDS011;5044;48.652;9.250;2022-07-29T02:11:56;4.00;;;2.03;;
10009;SDS011;5044;48.652;9.250;2022-07-29T02:14:26;2.10;;;1.50;;
10009;SDS011;5044;48.652;9.250;2022-07-29T02:16:56;2.40;;;1.60;;
10009;SDS011;5044;48.652;9.250;2022-07-29T02:19:24;2.50;;;2.00;;
10009;SDS011;5044;48.652;9.250;2022-07-29T02:21:53;4.90;;;2.22;;
10009;SDS011;5044;48.652;9.250;2022-07-29T02:24:22;3.13;;;2.08;;
10009;SDS011;5044;48.652;9.250;2022-07-29T02:26:51;2.20;;;2.00;;
10009;SDS011;5044;48.652;9.250;2022-07-29T02:29:19;2.70;;;1.83;;
10009;SDS011;5044;48.652;9.250;2022-07-29T02:31:49;1.67;;;1.58;;
10009;SDS011;5044;48.652;9.250;2022-07-29T02:34:19;2.10;;;1.90;;
10009;SDS011;5044;48.652;9.250;2022-07-29T02:36:47;3.42;;;2.05;;
10009;SDS011;5044;48.652;9.250;2022-07-29T02:39:15;2.53;;;1.88;;
10009;SDS011;5044;48.652;9.250;2022-07-29T02:41:44;1.77;;;1.60;;
10009;SDS011;5044;48.652;9.250;2022-07-29T02:46:45;2.85;;;2.03;;
10009;SDS011;5044;48.652;9.250;2022-07-29T02:49:17;3.60;;;1.63;;
10009;SDS011;5044;48.652;9.250;2022-07-29T02:51:57;2.55;;;2.03;;
10009;SDS011;5044;48.652;9.250;2022-07-29T02:54:37;2.65;;;2.10;;
10009;SDS011;5044;48.652;9.250;2022-07-29T02:57:09;2.60;;;2.27;;
10009;SDS011;5044;48.652;9.250;2022-07-29T02:59:48;2.80;;;1.80;;
10009;SDS011;5044;48.652;9.250;2022-07-29T03:02:17;2.17;;;1.98;;
10009;SDS011;5044;48.652;9.250;2022-07-29T03:04:48;3.42;;;2.20;;
10009;SDS011;5044;48.652;9.250;2022-07-29T03:07:17;2.55;;;2.35;;
10009;SDS011;5044;48.652;9.250;2022-07-29T03:09:46;2.50;;;1.67;;
10009;SDS011;5044;48.652;9.250;2022-07-29T03:12:15;2.00;;;1.85;;
10009;SDS011;5044;48.652;9.250;2022-07-29T03:14:42;2.25;;;2.05;;
10009;SDS011;5044;48.652;9.250;2022-07-29T03:17:11;2.35;;;1.60;;
10009;SDS011;5044;48.652;9.250;2022-07-29T03:19:38;6.45;;;3.25;;
10009;SDS011;5044;48.652;9.250;2022-07-29T03:22:07;2.13;;;1.88;;
10009;SDS011;5044;48.652;9.250;2022-07-29T03:24:34;5.00;;;2.38;;
10009;SDS011;5044;48.652;9.250;2022-07-29T03:27:02;3.22;;;2.17;;
10009;SDS011;5044;48.652;9.250;2022-07-29T03:29:30;2.70;;;2.45;;
10009;SDS011;5044;48.652;9.250;2022-07-29T03:31:58;3.70;;;2.92;;
10009;SDS011;5044;48.652;9.250;2022-07-29T03:34:25;4.53;;;2.50;;
10009;SDS011;5044;48.652;9.250;2022-07-29T03:36:57;3.33;;;2.50;;
10009;SDS011;5044;48.652;9.250;2022-07-29T03:39:27;3.35;;;2.33;;
10009;SDS011;5044;48.652;9.250;2022-07-29T03:41:57;4.85;;;2.53;;
10009;SDS011;5044;48.652;9.250;2022-07-29T03:44:28;3.63;;;2.72;;
10009;SDS011;5044;48.652;9.250;2022-07-29T03:46:57;3.50;;;2.63;;
10009;SDS011;5044;48.652;9.250;2022-07-29T03:49:27;3.17;;;2.58;;
10009;SDS011;5044;48.652;9.250;2022-07-29T03:52:01;4.90;;;3.53;;
10009;SDS011;5044;48.652;9.250;2022-07-29T03:54:29;3.13;;;2.30;;
10009;SDS011;5044;48.652;9.250;2022-07-29T03:56:56;2.17;;;1.98;;
10009;SDS011;5044;48.652;9.250;2022-07-29T03:59:27;4.70;;;3.17;;
10009;SDS011;5044;48.652;9.250;2022-07-29T04:01:58;3.15;;;2.85;;
10009;SDS011;5044;48.652;9.250;2022-07-29T04:04:26;3.17;;;2.30;;
10009;SDS011;5044;48.652;9.250;2022-07-29T04:06:59;3.63;;;3.00;;
10009;SDS011;5044;48.652;9.250;2022-07-29T04:09:26;2.85;;;2.40;;
10009;SDS011;5044;48.652;9.250;2022-07-29T04:11:54;2.55;;;2.13;;
10009;SDS011;5044;48.652;9.250;2022-07-29T04:14:23;3.10;;;1.80;;
10009;SDS011;5044;48.652;9.250;2022-07-29T04:16:50;4.82;;;2.35;;
10009;SDS011;5044;48.652;9.250;2022-07-29T04:19:17;3.55;;;2.28;;
10009;SDS011;5044;48.652;9.250;2022-07-29T04:21:47;3.85;;;2.97;;
10009;SDS011;5044;48.652;9.250;2022-07-29T04:24:14;3.00;;;2.08;;
10009;SDS011;5044;48.652;9.250;2022-07-29T04:26:45;2.30;;;2.05;;
10009;SDS011;5044;48.652;9.250;2022-07-29T04:29:15;3.70;;;2.20;;
10009;SDS011;5044;48.652;9.250;2022-07-29T04:31:42;2.60;;;2.25;;
10009;SDS011;5044;48.652;9.250;2022-07-29T04:34:11;3.75;;;1.90;;
10009;SDS011;5044;48.652;9.250;2022-07-29T04:36:38;2.03;;;1.83;;
10009;SDS011;5044;48.652;9.250;2022-07-29T04:39:05;2.53;;;1.80;;
10009;SDS011;5044;48.652;9.250;2022-07-29T04:41:32;2.72;;;2.40;;
10009;SDS011;5044;48.652;9.250;2022-07-29T04:44:05;3.95;;;1.75;;
10009;SDS011;5044;48.652;9.250;2022-07-29T04:46:34;2.25;;;1.95;;
10009;SDS011;5044;48.652;9.250;2022-07-29T04:49:05;2.85;;;1.90;;
10009;SDS011;5044;48.652;9.250;2022-07-29T04:51:36;2.53;;;1.90;;
10009;SDS011;5044;48.652;9.250;2022-07-29T04:54:03;2.58;;;1.92;;
10009;SDS011;5044;48.652;9.250;2022-07-29T04:56:32;1.80;;;1.60;;
10009;SDS011;5044;48.652;9.250;2022-07-29T04:58:59;3.83;;;2.05;;
10009;SDS011;5044;48.652;9.250;2022-07-29T05:01:28;4.22;;;1.70;;
10009;SDS011;5044;48.652;9.250;2022-07-29T05:03:56;4.35;;;2.08;;
10009;SDS011;5044;48.652;9.250;2022-07-29T05:06:23;3.78;;;2.00;;
10009;SDS011;5044;48.652;9.250;2022-07-29T05:08:50;4.05;;;1.88;;
10009;SDS011;5044;48.652;9.250;2022-07-29T05:11:18;2.78;;;1.88;;
10009;SDS011;5044;48.652;9.250;2022-07-29T05:13:46;2.13;;;1.80;;
10009;SDS011;5044;48.652;9.250;2022-07-29T05:16:28;3.67;;;2.22;;
10009;SDS011;5044;48.652;9.250;2022-07-29T05:18:57;2.40;;;2.03;;
10009;SDS011;5044;48.652;9.250;2022-07-29T05:21:29;2.30;;;2.10;;
10009;SDS011;5044;48.652;9.250;2022-07-29T05:23:56;1.77;;;1.67;;
10009;SDS011;5044;48.652;9.250;2022-07-29T05:26:22;2.30;;;2.03;;
10009;SDS011;5044;48.652;9.250;2022-07-29T05:28:49;4.50;;;2.15;;
10009;SDS011;5044;48.652;9.250;2022-07-29T05:31:16;3.63;;;2.53;;
10009;SDS011;5044;48.652;9.250;2022-07-29T05:33:46;3.47;;;2.20;;
10009;SDS011;5044;48.652;9.250;2022-07-29T05:36:16;2.80;;;2.47;;
10009;SDS011;5044;48.652;9.250;2022-07-29T05:38:43;3.08;;;2.13;;
10009;SDS011;5044;48.652;9.250;2022-07-29T05:41:10;3.00;;;2.22;;
10009;SDS011;5044;48.652;9.250;2022-07-29T05:43:37;6.70;;;3.00;;
10009;SDS011;5044;48.652;9.250;2022-07-29T05:46:05;3.90;;;2.40;;
10009;SDS011;5044;48.652;9.250;2022-07-29T05:48:41;3.95;;;1.95;;
10009;SDS011;5044;48.652;9.250;2022-07-29T05:51:09;2.00;;;1.73;;
10009;SDS011;5044;48.652;9.250;2022-07-29T05:53:38;4.88;;;2.15;;
10009;SDS011;5044;48.652;9.250;2022-07-29T05:56:05;2.70;;;2.50;;
10009;SDS011;5044;48.652;9.250;2022-07-29T05:58:34;3.95;;;2.30;;
10009;SDS011;5044;48.652;9.250;2022-07-29T06:01:02;2.40;;;1.80;;
10009;SDS011;5044;48.652;9.250;2022-07-29T06:03:29;2.45;;;1.73;;
10009;SDS011;5044;48.652;9.250;2022-07-29T06:05:57;2.00;;;1.80;;
10009;SDS011;5044;48.652;9.250;2022-07-29T06:08:24;1.70;;;1.60;;
10009;SDS011;5044;48.652;9.250;2022-07-29T06:10:52;2.60;;;1.60;;
10009;SDS011;5044;48.652;9.250;2022-07-29T06:13:19;3.20;;;1.80;;
10009;SDS011;5044;48.652;9.250;2022-07-29T06:15:46;3.03;;;1.95;;
10009;SDS011;5044;48.652;9.250;2022-07-29T06:18:13;2.20;;;1.90;;
10009;SDS011;5044;48.652;9.250;2022-07-29T06:20:40;2.03;;;1.50;;
10009;SDS011;5044;48.652;9.250;2022-07-29T06:23:07;2.20;;;1.75;;
10009;SDS011;5044;48.652;9.250;2022-07-29T06:25:34;2.17;;;1.88;;
10009;SDS011;5044;48.652;9.250;2022-07-29T06:28:03;3.15;;;1.70;;
10009;SDS011;5044;48.652;9.250;2022-07-29T06:30:30;3.65;;;2.35;;
10009;SDS011;5044;48.652;9.250;2022-07-29T06:32:57;2.10;;;1.70;;
10009;SDS011;5044;48.652;9.250;2022-07-29T06:35:25;2.17;;;1.98;;
10009;SDS011;5044;48.652;9.250;2022-07-29T06:37:52;2.50;;;2.20;;
10009;SDS011;5044;48.652;9.250;2022-07-29T06:40:19;3.65;;;2.10;;
10009;SDS011;5044;48.652;9.250;2022-07-29T06:43:05;3.58;;;2.05;;
10009;SDS011;5044;48.652;9.250;2022-07-29T06:45:33;2.33;;;1.90;;
10009;SDS011;5044;48.652;9.250;2022-07-29T06:48:00;2.30;;;1.80;;
10009;SDS011;5044;48.652;9.250;2022-07-29T06:50:27;3.47;;;2.08;;
10009;SDS011;5044;48.652;9.250;2022-07-29T06:52:54;2.42;;;1.63;;
10009;SDS011;5044;48.652;9.250;2022-07-29T06:55:21;2.25;;;1.90;;
10009;SDS011;5044;48.652;9.250;2022-07-29T06:57:48;3.60;;;1.40;;
10009;SDS011;5044;48.652;9.250;2022-07-29T07:00:17;3.40;;;1.80;;
10009;SDS011;5044;48.652;9.250;2022-07-29T07:02:43;3.80;;;1.67;;
10009;SDS011;5044;48.652;9.250;2022-07-29T07:05:10;3.00;;;1.63;;
10009;SDS011;5044;48.652;9.250;2022-07-29T07:07:37;2.60;;;1.48;;
10009;SDS011;5044;48.652;9.250;2022-07-29T07:10:04;2.83;;;1.75;;
10009;SDS011;5044;48.652;9.250;2022-07-29T07:12:32;3.40;;;1.55;;
10009;SDS011;5044;48.652;9.250;2022-07-29T07:14:59;2.85;;;1.83;;
10009;SDS011;5044;48.652;9.250;2022-07-29T07:17:27;2.55;;;1.70;;
10009;SDS011;5044;48.652;9.250;2022-07-29T07:19:54;2.70;;;1.70;;
10009;SDS011;5044;48.652;9.250;2022-07-29T07:22:21;2.28;;;1.63;;
10009;SDS011;5044;48.652;9.250;2022-07-29T07:24:47;2.00;;;1.52;;
10009;SDS011;5044;48.652;9.250;2022-07-29T07:27:14;3.42;;;1.80;;
10009;SDS011;5044;48.652;9.250;2022-07-29T07:29:41;2.38;;;1.73;;
10009;SDS011;5044;48.652;9.250;2022-07-29T07:32:08;2.38;;;1.70;;
10009;SDS011;5044;48.652;9.250;2022-07-29T07:34:36;1.75;;;1.60;;
10009;SDS011;5044;48.652;9.250;2022-07-29T07:37:03;2.80;;;1.52;;
10009;SDS011;5044;48.652;9.250;2022-07-29T07:39:30;1.95;;;1.67;;
10009;SDS011;5044;48.652;9.250;2022-07-29T07:41:57;1.80;;;1.33;;
10009;SDS011;5044;48.652;9.250;2022-07-29T07:44:23;4.95;;;1.60;;
10009;SDS011;5044;48.652;9.250;2022-07-29T07:46:50;3.15;;;1.52;;
10009;SDS011;5044;48.652;9.250;2022-07-29T07:49:17;2.38;;;1.95;;
10009;SDS011;5044;48.652;9.250;2022-07-29T07:51:45;2.03;;;1.65;;
10009;SDS011;5044;48.652;9.250;2022-07-29T07:54:12;2.78;;;1.90;;
10009;SDS011;5044;48.652;9.250;2022-07-29T07:56:39;1.33;;;1.23;;
10009;SDS011;5044;48.652;9.250;2022-07-29T07:59:06;1.83;;;1.60;;
10009;SDS011;5044;48.652;9.250;2022-07-29T08:01:33;3.55;;;2.05;;
10009;SDS011;5044;48.652;9.250;2022-07-29T08:04:00;2.70;;;1.73;;
10009;SDS011;5044;48.652;9.250;2022-07-29T08:06:26;5.35;;;2.00;;
10009;SDS011;5044;48.652;9.250;2022-07-29T08:08:55;3.58;;;1.55;;
10009;SDS011;5044;48.652;9.250;2022-07-29T08:11:21;3.88;;;1.65;;
10009;SDS011;5044;48.652;9.250;2022-07-29T08:13:48;3.70;;;1.85;;
10009;SDS011;5044;48.652;9.250;2022-07-29T08:16:15;3.00;;;2.05;;
10009;SDS011;5044;48.652;9.250;2022-07-29T08:18:43;3.92;;;1.92;;
10009;SDS011;5044;48.652;9.250;2022-07-29T08:21:10;4.32;;;2.05;;
10009;SDS011;5044;48.652;9.250;2022-07-29T08:23:37;3.50;;;1.45;;
10009;SDS011;5044;48.652;9.250;2022-07-29T08:26:11;1.65;;;1.55;;
10009;SDS011;5044;48.652;9.250;2022-07-29T08:28:39;3.35;;;2.10;;
10009;SDS011;5044;48.652;9.250;2022-07-29T08:31:09;2.08;;;1.55;;
10009;SDS011;5044;48.652;9.250;2022-07-29T08:33:36;2.28;;;1.88;;
10009;SDS011;5044;48.652;9.250;2022-07-29T08:36:04;3.10;;;1.85;;
10009;SDS011;5044;48.652;9.250;2022-07-29T08:38:31;3.33;;;2.05;;
10009;SDS011;5044;48.652;9.250;2022-07-29T08:40:59;2.85;;;1.90;;
10009;SDS011;5044;48.652;9.250;2022-07-29T08:43:28;7.72;;;2.42;;
10009;SDS011;5044;48.652;9.250;2022-07-29T08:45:55;3.45;;;1.70;;
10009;SDS011;5044;48.652;9.250;2022-07-29T08:48:22;4.95;;;2.40;;
10009;SDS011;5044;48.652;9.250;2022-07-29T08:50:52;2.13;;;1.70;;
10009;SDS011;5044;48.652;9.250;2022-07-29T08:53:21;2.33;;;1.73;;
10009;SDS011;5044;48.652;9.250;2022-07-29T08:55:52;2.70;;;1.67;;
10009;SDS011;5044;48.652;9.250;2022-07-29T08:58:19;3.47;;;2.15;;
10009;SDS011;5044;48.652;9.250;2022-07-29T09:00:50;2.88;;;2.25;;
10009;SDS011;5044;48.652;9.250;2022-07-29T09:03:18;3.63;;;1.80;;
10009;SDS011;5044;48.652;9.250;2022-07-29T09:05:46;4.45;;;2.05;;
10009;SDS011;5044;48.652;9.250;2022-07-29T09:08:14;2.25;;;2.05;;
10009;SDS011;5044;48.652;9.250;2022-07-29T09:10:42;6.13;;;2.15;;
10009;SDS011;5044;48.652;9.250;2022-07-29T09:13:09;3.67;;;2.30;;
10009;SDS011;5044;48.652;9.250;2022-07-29T09:15:37;3.05;;;2.17;;
10009;SDS011;5044;48.652;9.250;2022-07-29T09:18:05;2.03;;;1.77;;
10009;SDS011;5044;48.652;9.250;2022-07-29T09:20:32;5.38;;;2.28;;
10009;SDS011;5044;48.652;9.250;2022-07-29T09:25:40;3.05;;;2.20;;
10009;SDS011;5044;48.652;9.250;2022-07-29T09:28:08;8.88;;;2.13;;
10009;SDS011;5044;48.652;9.250;2022-07-29T09:30:37;2.13;;;1.83;;
10009;SDS011;5044;48.652;9.250;2022-07-29T09:33:17;2.30;;;2.10;;
10009;SDS011;5044;48.652;9.250;2022-07-29T09:35:44;2.72;;;1.95;;
10009;SDS011;5044;48.652;9.250;2022-07-29T09:38:11;3.08;;;1.92;;
10009;SDS011;5044;48.652;9.250;2022-07-29T09:40:39;4.20;;;1.95;;
10009;SDS011;5044;48.652;9.250;2022-07-29T09:43:09;4.22;;;2.28;;
10009;SDS011;5044;48.652;9.250;2022-07-29T09:48:12;2.88;;;2.00;;
10009;SDS011;5044;48.652;9.250;2022-07-29T09:50:42;3.63;;;1.70;;
10009;SDS011;5044;48.652;9.250;2022-07-29T09:53:10;2.65;;;2.05;;
10009;SDS011;5044;48.652;9.250;2022-07-29T09:55:46;3.25;;;2.50;;
10009;SDS011;5044;48.652;9.250;2022-07-29T09:58:15;2.97;;;2.25;;
10009;SDS011;5044;48.652;9.250;2022-07-29T10:00:42;2.05;;;1.85;;
10009;SDS011;5044;48.652;9.250;2022-07-29T10:03:10;2.90;;;2.10;;
10009;SDS011;5044;48.652;9.250;2022-07-29T10:05:37;2.70;;;2.20;;
10009;SDS011;5044;48.652;9.250;2022-07-29T10:08:08;3.42;;;2.42;;
10009;SDS011;5044;48.652;9.250;2022-07-29T10:10:37;5.13;;;2.35;;
10009;SDS011;5044;48.652;9.250;2022-07-29T10:13:07;5.75;;;2.13;;
10009;SDS011;5044;48.652;9.250;2022-07-29T10:15:36;5.60;;;2.70;;
10009;SDS011;5044;48.652;9.250;2022-07-29T10:20:32;3.92;;;2.05;;
10009;SDS011;5044;48.652;9.250;2022-07-29T10:23:00;2.38;;;2.17;;
10009;SDS011;5044;48.652;9.250;2022-07-29T10:25:28;6.50;;;2.42;;
10009;SDS011;5044;48.652;9.250;2022-07-29T10:27:56;3.05;;;2.20;;
10009;SDS011;5044;48.652;9.250;2022-07-29T10:30:24;2.63;;;2.28;;
10009;SDS011;5044;48.652;9.250;2022-07-29T10:36:00;2.47;;;2.17;;
10009;SDS011;5044;48.652;9.250;2022-07-29T10:44:16;2.55;;;2.35;;
10009;SDS011;5044;48.652;9.250;2022-07-29T10:46:44;2.83;;;2.53;;
10009;SDS011;5044;48.652;9.250;2022-07-29T10:49:13;4.80;;;2.55;;
10009;SDS011;5044;48.652;9.250;2022-07-29T10:51:51;4.88;;;2.58;;
10009;SDS011;5044;48.652;9.250;2022-07-29T10:54:38;10.02;;;2.65;;
10009;SDS011;5044;48.652;9.250;2022-07-29T10:57:25;2.92;;;2.65;;
10009;SDS011;5044;48.652;9.250;2022-07-29T11:02:57;2.83;;;2.50;;
10009;SDS011;5044;48.652;9.250;2022-07-29T11:05:25;6.53;;;2.42;;
10009;SDS011;5044;48.652;9.250;2022-07-29T11:10:51;6.88;;;2.55;;
10009;SDS011;5044;48.652;9.250;2022-07-29T11:16:15;4.18;;;2.60;;
10009;SDS011;5044;48.652;9.250;2022-07-29T11:21:47;3.67;;;3.03;;
10009;SDS011;5044;48.652;9.250;2022-07-29T11:24:15;4.00;;;2.10;;
10009;SDS011;5044;48.652;9.250;2022-07-29T11:26:44;5.00;;;2.25;;
10009;SDS011;5044;48.652;9.250;2022-07-29T11:29:18;4.75;;;2.38;;
10009;SDS011;5044;48.652;9.250;2022-07-29T11:31:47;6.18;;;2.55;;
10009;SDS011;5044;48.652;9.250;2022-07-29T11:34:23;6.65;;;2.53;;
10009;SDS011;5044;48.652;9.250;2022-07-29T11:39:45;3.40;;;1.73;;
10009;SDS011;5044;48.652;9.250;2022-07-29T11:45:09;2.45;;;1.00;;
10009;SDS011;5044;48.652;9.250;2022-07-29T11:47:39;3.75;;;1.50;;
10009;SDS011;5044;48.652;9.250;2022-07-29T11:50:08;3.10;;;1.70;;
10009;SDS011;5044;48.652;9.250;2022-07-29T11:52:38;3.15;;;0.98;;
10009;SDS011;5044;48.652;9.250;2022-07-29T11:55:11;2.10;;;0.80;;
10009;SDS011;5044;48.652;9.250;2022-07-29T11:57:45;2.38;;;1.10;;
10009;SDS011;5044;48.652;9.250;2022-07-29T12:00:21;1.42;;;0.90;;
10009;SDS011;5044;48.652;9.250;2022-07-29T12:02:50;2.25;;;1.10;;
10009;SDS011;5044;48.652;9.250;2022-07-29T12:05:18;4.07;;;1.00;;
10009;SDS011;5044;48.652;9.250;2022-07-29T12:07:46;1.60;;;0.90;;
10009;SDS011;5044;48.652;9.250;2022-07-29T12:10:13;2.38;;;0.88;;
10009;SDS011;5044;48.652;9.250;2022-07-29T12:12:40;1.30;;;0.80;;
10009;SDS011;5044;48.652;9.250;2022-07-29T12:15:14;0.73;;;0.70;;
10009;SDS011;5044;48.652;9.250;2022-07-29T12:17:47;0.93;;;0.85;;
10009;SDS011;5044;48.652;9.250;2022-07-29T12:20:21;1.00;;;0.77;;
10009;SDS011;5044;48.652;9.250;2022-07-29T12:22:49;1.00;;;0.90;;
10009;SDS011;5044;48.652;9.250;2022-07-29T12:25:18;2.45;;;1.00;;
10009;SDS011;5044;48.652;9.250;2022-07-29T12:27:47;4.10;;;1.45;;
10009;SDS011;5044;48.652;9.250;2022-07-29T12:30:34;2.75;;;1.30;;
10009;SDS011;5044;48.652;9.250;2022-07-29T12:33:13;1.77;;;1.10;;
10009;SDS011;5044;48.652;9.250;2022-07-29T12:35:45;2.65;;;1.80;;
10009;SDS011;5044;48.652;9.250;2022-07-29T12:38:15;2.08;;;1.42;;
10009;SDS011;5044;48.652;9.250;2022-07-29T12:40:43;3.45;;;1.95;;
10009;SDS011;5044;48.652;9.250;2022-07-29T12:43:12;3.08;;;1.83;;
10009;SDS011;5044;48.652;9.250;2022-07-29T12:45:41;3.65;;;2.00;;
10009;SDS011;5044;48.652;9.250;2022-07-29T12:48:09;3.50;;;2.05;;
10009;SDS011;5044;48.652;9.250;2022-07-29T12:50:51;2.47;;;1.55;;
10009;SDS011;5044;48.652;9.250;2022-07-29T12:53:22;3.08;;;1.90;;
10009;SDS011;5044;48.652;9.250;2022-07-29T12:55:50;4.45;;;2.10;;
10009;SDS011;5044;48.652;9.250;2022-07-29T12:58:26;1.52;;;1.40;;
10009;SDS011;5044;48.652;9.250;2022-07-29T13:01:01;4.50;;;2.15;;
10009;SDS011;5044;48.652;9.250;2022-07-29T13:03:40;2.72;;;1.70;;
10009;SDS011;5044;48.652;9.250;2022-07-29T13:06:30;3.13;;;2.15;;
10009;SDS011;5044;48.652;9.250;2022-07-29T13:09:06;2.38;;;1.85;;
10009;SDS011;5044;48.652;9.250;2022-07-29T13:11:36;5.80;;;2.20;;
10009;SDS011;5044;48.652;9.250;2022-07-29T13:14:05;2.58;;;1.90;;
10009;SDS011;5044;48.652;9.250;2022-07-29T13:16:33;6.65;;;2.53;;
10009;SDS011;5044;48.652;9.250;2022-07-29T13:19:08;2.58;;;2.03;;
10009;SDS011;5044;48.652;9.250;2022-07-29T13:21:38;4.10;;;2.22;;
10009;SDS011;5044;48.652;9.250;2022-07-29T13:24:06;2.00;;;1.80;;
10009;SDS011;5044;48.652;9.250;2022-07-29T13:26:34;2.83;;;2.22;;
10009;SDS011;5044;48.652;9.250;2022-07-29T13:29:05;8.98;;;3.13;;
10009;SDS011;5044;48.652;9.250;2022-07-29T13:31:32;4.63;;;2.83;;
10009;SDS011;5044;48.652;9.250;2022-07-29T13:33:59;4.50;;;2.00;;
10009;SDS011;5044;48.652;9.250;2022-07-29T13:36:26;2.72;;;2.35;;
10009;SDS011;5044;48.652;9.250;2022-07-29T13:38:54;2.85;;;1.88;;
10009;SDS011;5044;48.652;9.250;2022-07-29T13:41:21;3.47;;;2.05;;
10009;SDS011;5044;48.652;9.250;2022-07-29T13:43:49;3.83;;;1.83;;
10009;SDS011;5044;48.652;9.250;2022-07-29T13:46:16;2.75;;;2.10;;
10009;SDS011;5044;48.652;9.250;2022-07-29T13:48:43;3.17;;;2.40;;
10009;SDS011;5044;48.652;9.250;2022-07-29T13:51:10;3.45;;;2.50;;
10009;SDS011;5044;48.652;9.250;2022-07-29T13:53:38;5.72;;;2.63;;
10009;SDS011;5044;48.652;9.250;2022-07-29T13:56:06;4.75;;;2.00;;
10009;SDS011;5044;48.652;9.250;2022-07-29T13:58:33;4.95;;;2.40;;
10009;SDS011;5044;48.652;9.250;2022-07-29T14:01:01;4.03;;;2.50;;
10009;SDS011;5044;48.652;9.250;2022-07-29T14:03:29;2.60;;;2.20;;
10009;SDS011;5044;48.652;9.250;2022-07-29T14:05:56;4.13;;;1.92;;
10009;SDS011;5044;48.652;9.250;2022-07-29T14:08:25;4.47;;;2.97;;
10009;SDS011;5044;48.652;9.250;2022-07-29T14:10:51;3.53;;;2.83;;
10009;SDS011;5044;48.652;9.250;2022-07-29T14:13:20;2.70;;;2.38;;
10009;SDS011;5044;48.652;9.250;2022-07-29T14:15:47;2.80;;;2.15;;
10009;SDS011;5044;48.652;9.250;2022-07-29T14:18:14;2.90;;;2.33;;
10009;SDS011;5044;48.652;9.250;2022-07-29T14:20:40;4.68;;;2.80;;
10009;SDS011;5044;48.652;9.250;2022-07-29T14:23:08;3.67;;;2.50;;
10009;SDS011;5044;48.652;9.250;2022-07-29T14:25:34;5.00;;;3.30;;
10009;SDS011;5044;48.652;9.250;2022-07-29T14:28:01;2.20;;;2.00;;
10009;SDS011;5044;48.652;9.250;2022-07-29T14:30:30;5.15;;;3.28;;
10009;SDS011;5044;48.652;9.250;2022-07-29T14:32:56;4.72;;;2.80;;
10009;SDS011;5044;48.652;9.250;2022-07-29T14:35:23;4.35;;;2.40;;
10009;SDS011;5044;48.652;9.250;2022-07-29T14:37:50;3.88;;;2.40;;
10009;SDS011;5044;48.652;9.250;2022-07-29T14:40:17;4.72;;;2.33;;
10009;SDS011;5044;48.652;9.250;2022-07-29T14:42:44;2.78;;;2.22;;
10009;SDS011;5044;48.652;9.250;2022-07-29T14:45:11;3.85;;;2.45;;
10009;SDS011;5044;48.652;9.250;2022-07-29T14:47:39;2.60;;;2.40;;
10009;SDS011;5044;48.652;9.250;2022-07-29T14:50:07;5.53;;;2.58;;
10009;SDS011;5044;48.652;9.250;2022-07-29T14:52:34;5.05;;;2.65;;
10009;SDS011;5044;48.652;9.250;2022-07-29T14:55:01;4.68;;;2.40;;
10009;SDS011;5044;48.652;9.250;2022-07-29T14:57:29;3.75;;;2.38;;
10009;SDS011;5044;48.652;9.250;2022-07-29T14:59:55;4.22;;;2.60;;
10009;SDS011;5044;48.652;9.250;2022-07-29T15:02:22;4.88;;;2.70;;
10009;SDS011;5044;48.652;9.250;2022-07-29T15:04:50;4.63;;;2.72;;
10009;SDS011;5044;48.652;9.250;2022-07-29T15:07:17;3.50;;;2.80;;
10009;SDS011;5044;48.652;9.250;2022-07-29T15:09:47;3.40;;;2.10;;
10009;SDS011;5044;48.652;9.250;2022-07-29T15:12:14;3.38;;;2.50;;
10009;SDS011;5044;48.652;9.250;2022-07-29T15:14:41;3.55;;;2.40;;
10009;SDS011;5044;48.652;9.250;2022-07-29T15:17:08;3.97;;;2.70;;
10009;SDS011;5044;48.652;9.250;2022-07-29T15:19:37;4.05;;;2.20;;
10009;SDS011;5044;48.652;9.250;2022-07-29T15:22:05;2.70;;;2.25;;
10009;SDS011;5044;48.652;9.250;2022-07-29T15:24:32;2.97;;;2.20;;
10009;SDS011;5044;48.652;9.250;2022-07-29T15:26:59;4.82;;;2.65;;
10009;SDS011;5044;48.652;9.250;2022-07-29T15:29:26;2.88;;;2.10;;
10009;SDS011;5044;48.652;9.250;2022-07-29T15:31:53;3.00;;;2.55;;
10009;SDS011;5044;48.652;9.250;2022-07-29T15:34:21;4.53;;;2.47;;
10009;SDS011;5044;48.652;9.250;2022-07-29T15:36:48;5.47;;;2.95;;
10009;SDS011;5044;48.652;9.250;2022-07-29T15:39:17;5.78;;;2.20;;
10009;SDS011;5044;48.652;9.250;2022-07-29T15:41:43;3.08;;;2.78;;
10009;SDS011;5044;48.652;9.250;2022-07-29T15:44:10;3.05;;;2.22;;
10009;SDS011;5044;48.652;9.250;2022-07-29T15:46:37;3.17;;;2.20;;
10009;SDS011;5044;48.652;9.250;2022-07-29T15:49:21;3.85;;;2.15;;